sensor_id;sensor_type;location;lat;lon;timestamp;pressure;altitude;pressure_sealevel;temperature;humidity
37202;BME280;37799;52.390;6.136;2023-02-15T00:01:07;102939.03;;;0.32;100.00
37202;BME280;37799;52.390;6.136;2023-02-15T00:03:33;102928.81;;;0.32;100.00
37202;BME280;37799;52.390;6.136;2023-02-15T00:05:58;102929.16;;;0.22;100.00
37202;BME280;37799;52.390;6.136;2023-02-15T00:08:24;102929.81;;;0.18;100.00
37202;BME280;37799;52.390;6.136;2023-02-15T00:10:49;102924.88;;;0.21;100.00
37202;BME280;37799;52.390;6.136;2023-02-15T00:13:14;102926.16;;;0.13;100.00
37202;BME280;37799;52.390;6.136;2023-02-15T00:15:39;102914.00;;;0.07;100.00
37202;BME280;37799;52.390;6.136;2023-02-15T00:18:05;102918.22;;;0.07;100.00
37202;BME280;37799;52.390;6.136;2023-02-15T00:20:30;102914.50;;;0.00;100.00
37202;BME280;37799;52.390;6.136;2023-02-15T00:22:55;102905.94;;;-0.01;100.00
37202;BME280;37799;52.390;6.136;2023-02-15T00:25:21;102908.34;;;-0.04;100.00
37202;BME280;37799;52.390;6.136;2023-02-15T00:27:46;102906.59;;;-0.05;100.00
37202;BME280;37799;52.390;6.136;2023-02-15T00:30:12;102915.69;;;-0.10;100.00
37202;BME280;37799;52.390;6.136;2023-02-15T00:32:37;102906.72;;;-0.19;100.00
37202;BME280;37799;52.390;6.136;2023-02-15T00:35:02;102909.03;;;-0.24;100.00
37202;BME280;37799;52.390;6.136;2023-02-15T00:37:28;102915.56;;;-0.13;100.00
37202;BME280;37799;52.390;6.136;2023-02-15T00:39:53;102915.03;;;-0.06;100.00
37202;BME280;37799;52.390;6.136;2023-02-15T00:42:18;102913.88;;;-0.12;100.00
37202;BME280;37799;52.390;6.136;2023-02-15T00:44:43;102912.03;;;-0.15;100.00
37202;BME280;37799;52.390;6.136;2023-02-15T00:47:09;102911.56;;;-0.24;100.00
37202;BME280;37799;52.390;6.136;2023-02-15T00:49:34;102915.53;;;-0.29;100.00
37202;BME280;37799;52.390;6.136;2023-02-15T00:52:00;102911.88;;;-0.34;100.00
37202;BME280;37799;52.390;6.136;2023-02-15T00:54:25;102912.53;;;-0.38;100.00
37202;BME280;37799;52.390;6.136;2023-02-15T00:56:50;102907.03;;;-0.46;100.00
37202;BME280;37799;52.390;6.136;2023-02-15T00:59:15;102911.03;;;-0.51;100.00
37202;BME280;37799;52.390;6.136;2023-02-15T01:01:41;102911.56;;;-0.40;100.00
37202;BME280;37799;52.390;6.136;2023-02-15T01:04:06;102907.59;;;-0.51;100.00
37202;BME280;37799;52.390;6.136;2023-02-15T01:06:31;102904.94;;;-0.53;100.00
37202;BME280;37799;52.390;6.136;2023-02-15T01:08:57;102910.75;;;-0.39;100.00
37202;BME280;37799;52.390;6.136;2023-02-15T01:11:23;102913.78;;;-0.30;100.00
37202;BME280;37799;52.390;6.136;2023-02-15T01:13:53;102914.06;;;-0.25;100.00
37202;BME280;37799;52.390;6.136;2023-02-15T01:16:19;102910.16;;;-0.35;100.00
37202;BME280;37799;52.390;6.136;2023-02-15T01:18:44;102899.41;;;-0.46;100.00
37202;BME280;37799;52.390;6.136;2023-02-15T01:21:15;102883.72;;;-0.53;100.00
37202;BME280;37799;52.390;6.136;2023-02-15T01:23:41;102879.34;;;-0.56;100.00
37202;BME280;37799;52.390;6.136;2023-02-15T01:26:08;102878.81;;;-0.50;100.00
37202;BME280;37799;52.390;6.136;2023-02-15T01:28:33;102873.09;;;-0.46;100.00
37202;BME280;37799;52.390;6.136;2023-02-15T01:30:59;102876.78;;;-0.40;100.00
37202;BME280;37799;52.390;6.136;2023-02-15T01:33:24;102870.84;;;-0.40;100.00
37202;BME280;37799;52.390;6.136;2023-02-15T01:35:56;102867.66;;;-0.36;100.00
37202;BME280;37799;52.390;6.136;2023-02-15T01:38:22;102860.84;;;-0.37;100.00
37202;BME280;37799;52.390;6.136;2023-02-15T01:40:50;102854.53;;;-0.44;100.00
37202;BME280;37799;52.390;6.136;2023-02-15T01:43:16;102857.00;;;-0.45;100.00
37202;BME280;37799;52.390;6.136;2023-02-15T01:45:42;102853.81;;;-0.41;100.00
37202;BME280;37799;52.390;6.136;2023-02-15T01:48:27;102859.63;;;-0.44;100.00
37202;BME280;37799;52.390;6.136;2023-02-15T01:50:56;102864.19;;;-0.38;100.00
37202;BME280;37799;52.390;6.136;2023-02-15T01:53:29;102861.94;;;-0.32;100.00
37202;BME280;37799;52.390;6.136;2023-02-15T01:56:17;102859.53;;;-0.29;100.00
37202;BME280;37799;52.390;6.136;2023-02-15T01:58:44;102860.47;;;-0.27;100.00
37202;BME280;37799;52.390;6.136;2023-02-15T02:01:11;102849.84;;;-0.36;100.00
37202;BME280;37799;52.390;6.136;2023-02-15T02:06:30;102850.03;;;-0.49;100.00
37202;BME280;37799;52.390;6.136;2023-02-15T02:08:57;102835.56;;;-0.50;100.00
37202;BME280;37799;52.390;6.136;2023-02-15T02:11:22;102832.81;;;-0.53;100.00
37202;BME280;37799;52.390;6.136;2023-02-15T02:13:49;102828.09;;;-0.64;100.00
37202;BME280;37799;52.390;6.136;2023-02-15T02:19:10;102831.09;;;-0.71;100.00
37202;BME280;37799;52.390;6.136;2023-02-15T02:33:08;102815.19;;;-0.99;100.00
37202;BME280;37799;52.390;6.136;2023-02-15T02:35:54;102819.47;;;-0.98;100.00
37202;BME280;37799;52.390;6.136;2023-02-15T02:38:33;102817.25;;;-0.92;100.00
37202;BME280;37799;52.390;6.136;2023-02-15T02:41:33;102818.63;;;-0.82;100.00
37202;BME280;37799;52.390;6.136;2023-02-15T02:44:12;102811.25;;;-0.78;100.00
37202;BME280;37799;52.390;6.136;2023-02-15T02:49:38;102814.72;;;-0.92;100.00
37202;BME280;37799;52.390;6.136;2023-02-15T02:52:07;102812.34;;;-0.89;100.00
37202;BME280;37799;52.390;6.136;2023-02-15T02:54:34;102810.75;;;-1.03;100.00
37202;BME280;37799;52.390;6.136;2023-02-15T02:57:04;102797.38;;;-1.15;100.00
37202;BME280;37799;52.390;6.136;2023-02-15T02:59:40;102796.16;;;-1.22;100.00
37202;BME280;37799;52.390;6.136;2023-02-15T03:02:13;102793.13;;;-1.31;100.00
37202;BME280;37799;52.390;6.136;2023-02-15T03:04:46;102791.66;;;-1.28;100.00
37202;BME280;37799;52.390;6.136;2023-02-15T03:07:17;102791.25;;;-1.19;100.00
37202;BME280;37799;52.390;6.136;2023-02-15T03:09:50;102793.34;;;-1.12;100.00
37202;BME280;37799;52.390;6.136;2023-02-15T03:12:28;102788.47;;;-1.24;100.00
37202;BME280;37799;52.390;6.136;2023-02-15T03:15:01;102788.03;;;-1.31;100.00
37202;BME280;37799;52.390;6.136;2023-02-15T03:17:29;102785.91;;;-1.40;100.00
37202;BME280;37799;52.390;6.136;2023-02-15T03:20:03;102788.88;;;-1.47;100.00
37202;BME280;37799;52.390;6.136;2023-02-15T03:22:34;102782.78;;;-1.51;100.00
37202;BME280;37799;52.390;6.136;2023-02-15T03:25:34;102780.47;;;-1.46;100.00
37202;BME280;37799;52.390;6.136;2023-02-15T03:28:07;102774.38;;;-1.50;100.00
37202;BME280;37799;52.390;6.136;2023-02-15T03:30:35;102771.59;;;-1.54;100.00
37202;BME280;37799;52.390;6.136;2023-02-15T03:33:02;102767.84;;;-1.44;100.00
37202;BME280;37799;52.390;6.136;2023-02-15T03:35:59;102769.78;;;-1.40;100.00
37202;BME280;37799;52.390;6.136;2023-02-15T03:38:33;102767.47;;;-1.36;100.00
37202;BME280;37799;52.390;6.136;2023-02-15T03:41:02;102763.13;;;-1.38;100.00
37202;BME280;37799;52.390;6.136;2023-02-15T03:43:58;102758.81;;;-1.39;100.00
37202;BME280;37799;52.390;6.136;2023-02-15T03:49:10;102751.84;;;-1.27;100.00
37202;BME280;37799;52.390;6.136;2023-02-15T03:51:40;102751.13;;;-1.25;100.00
37202;BME280;37799;52.390;6.136;2023-02-15T03:54:17;102755.50;;;-1.22;100.00
37202;BME280;37799;52.390;6.136;2023-02-15T03:57:04;102747.50;;;-1.30;100.00
37202;BME280;37799;52.390;6.136;2023-02-15T03:59:48;102748.44;;;-1.28;100.00
37202;BME280;37799;52.390;6.136;2023-02-15T04:02:45;102744.16;;;-1.29;100.00
37202;BME280;37799;52.390;6.136;2023-02-15T04:05:16;102748.91;;;-1.35;100.00
37202;BME280;37799;52.390;6.136;2023-02-15T04:07:42;102749.53;;;-1.39;100.00
37202;BME280;37799;52.390;6.136;2023-02-15T04:10:08;102746.66;;;-1.45;100.00
37202;BME280;37799;52.390;6.136;2023-02-15T04:12:52;102742.28;;;-1.48;100.00
37202;BME280;37799;52.390;6.136;2023-02-15T04:15:17;102739.50;;;-1.52;100.00
37202;BME280;37799;52.390;6.136;2023-02-15T04:18:05;102747.78;;;-1.56;100.00
37202;BME280;37799;52.390;6.136;2023-02-15T04:20:30;102739.00;;;-1.61;100.00
37202;BME280;37799;52.390;6.136;2023-02-15T04:23:14;102742.09;;;-1.67;100.00
37202;BME280;37799;52.390;6.136;2023-02-15T04:25:58;102734.47;;;-1.67;100.00
37202;BME280;37799;52.390;6.136;2023-02-15T04:28:23;102740.44;;;-1.66;100.00
37202;BME280;37799;52.390;6.136;2023-02-15T04:30:49;102739.16;;;-1.58;100.00
37202;BME280;37799;52.390;6.136;2023-02-15T04:33:14;102734.97;;;-1.58;100.00
37202;BME280;37799;52.390;6.136;2023-02-15T04:35:40;102739.00;;;-1.61;100.00
37202;BME280;37799;52.390;6.136;2023-02-15T04:38:05;102738.06;;;-1.63;100.00
37202;BME280;37799;52.390;6.136;2023-02-15T04:40:31;102733.59;;;-1.67;100.00
37202;BME280;37799;52.390;6.136;2023-02-15T04:42:56;102736.31;;;-1.64;100.00
37202;BME280;37799;52.390;6.136;2023-02-15T04:45:21;102731.34;;;-1.77;100.00
37202;BME280;37799;52.390;6.136;2023-02-15T04:47:46;102729.44;;;-1.82;100.00
37202;BME280;37799;52.390;6.136;2023-02-15T04:50:12;102722.44;;;-1.86;100.00
37202;BME280;37799;52.390;6.136;2023-02-15T04:52:37;102724.81;;;-1.89;100.00
37202;BME280;37799;52.390;6.136;2023-02-15T04:55:03;102717.91;;;-1.91;100.00
37202;BME280;37799;52.390;6.136;2023-02-15T04:57:28;102719.81;;;-1.87;100.00
37202;BME280;37799;52.390;6.136;2023-02-15T04:59:54;102718.78;;;-1.91;100.00
37202;BME280;37799;52.390;6.136;2023-02-15T05:02:19;102716.75;;;-1.96;100.00
37202;BME280;37799;52.390;6.136;2023-02-15T05:04:44;102712.41;;;-1.99;100.00
37202;BME280;37799;52.390;6.136;2023-02-15T05:07:10;102719.06;;;-2.01;100.00
37202;BME280;37799;52.390;6.136;2023-02-15T05:09:35;102715.09;;;-1.96;100.00
37202;BME280;37799;52.390;6.136;2023-02-15T05:12:00;102713.97;;;-2.01;100.00
37202;BME280;37799;52.390;6.136;2023-02-15T05:14:26;102715.47;;;-2.04;100.00
37202;BME280;37799;52.390;6.136;2023-02-15T05:16:51;102712.88;;;-2.06;100.00
37202;BME280;37799;52.390;6.136;2023-02-15T05:19:16;102710.75;;;-2.13;100.00
37202;BME280;37799;52.390;6.136;2023-02-15T05:21:42;102703.69;;;-2.19;100.00
37202;BME280;37799;52.390;6.136;2023-02-15T05:24:07;102705.16;;;-2.22;100.00
37202;BME280;37799;52.390;6.136;2023-02-15T05:26:52;102706.94;;;-2.21;100.00
37202;BME280;37799;52.390;6.136;2023-02-15T05:29:36;102705.16;;;-2.22;100.00
37202;BME280;37799;52.390;6.136;2023-02-15T05:32:02;102714.81;;;-2.31;100.00
37202;BME280;37799;52.390;6.136;2023-02-15T05:34:27;102707.72;;;-2.37;100.00
37202;BME280;37799;52.390;6.136;2023-02-15T05:36:52;102707.81;;;-2.35;100.00
37202;BME280;37799;52.390;6.136;2023-02-15T05:39:18;102702.84;;;-2.34;100.00
37202;BME280;37799;52.390;6.136;2023-02-15T05:41:43;102696.44;;;-2.27;100.00
37202;BME280;37799;52.390;6.136;2023-02-15T05:44:08;102708.97;;;-2.30;100.00
37202;BME280;37799;52.390;6.136;2023-02-15T05:46:34;102714.97;;;-2.28;100.00
37202;BME280;37799;52.390;6.136;2023-02-15T05:48:59;102708.00;;;-2.32;100.00
37202;BME280;37799;52.390;6.136;2023-02-15T05:51:24;102695.13;;;-2.35;100.00
37202;BME280;37799;52.390;6.136;2023-02-15T05:53:49;102700.81;;;-2.40;100.00
37202;BME280;37799;52.390;6.136;2023-02-15T05:56:15;102695.56;;;-2.43;100.00
37202;BME280;37799;52.390;6.136;2023-02-15T05:58:41;102698.19;;;-2.41;100.00
37202;BME280;37799;52.390;6.136;2023-02-15T06:01:15;102693.44;;;-2.35;100.00
37202;BME280;37799;52.390;6.136;2023-02-15T06:03:41;102687.69;;;-2.32;100.00
37202;BME280;37799;52.390;6.136;2023-02-15T06:06:06;102696.78;;;-2.36;100.00
37202;BME280;37799;52.390;6.136;2023-02-15T06:08:33;102699.50;;;-2.33;100.00
37202;BME280;37799;52.390;6.136;2023-02-15T06:10:58;102701.19;;;-2.33;100.00
37202;BME280;37799;52.390;6.136;2023-02-15T06:13:24;102705.97;;;-2.38;100.00
37202;BME280;37799;52.390;6.136;2023-02-15T06:15:49;102712.72;;;-2.39;100.00
37202;BME280;37799;52.390;6.136;2023-02-15T06:18:14;102713.66;;;-2.37;100.00
37202;BME280;37799;52.390;6.136;2023-02-15T06:20:40;102708.88;;;-2.32;100.00
37202;BME280;37799;52.390;6.136;2023-02-15T06:23:05;102702.53;;;-2.24;100.00
37202;BME280;37799;52.390;6.136;2023-02-15T06:25:30;102700.34;;;-2.03;100.00
37202;BME280;37799;52.390;6.136;2023-02-15T06:27:55;102696.56;;;-1.95;100.00
37202;BME280;37799;52.390;6.136;2023-02-15T06:30:21;102700.88;;;-1.77;100.00
37202;BME280;37799;52.390;6.136;2023-02-15T06:32:46;102702.81;;;-1.57;100.00
37202;BME280;37799;52.390;6.136;2023-02-15T06:35:12;102700.59;;;-1.51;100.00
37202;BME280;37799;52.390;6.136;2023-02-15T06:37:37;102710.53;;;-1.39;100.00
37202;BME280;37799;52.390;6.136;2023-02-15T06:40:03;102706.41;;;-1.21;100.00
37202;BME280;37799;52.390;6.136;2023-02-15T06:42:29;102699.91;;;-1.16;100.00
37202;BME280;37799;52.390;6.136;2023-02-15T06:44:55;102697.03;;;-1.06;100.00
37202;BME280;37799;52.390;6.136;2023-02-15T06:47:20;102692.88;;;-0.87;100.00
37202;BME280;37799;52.390;6.136;2023-02-15T06:49:45;102694.22;;;-0.78;100.00
37202;BME280;37799;52.390;6.136;2023-02-15T06:52:11;102692.06;;;-0.70;100.00
37202;BME280;37799;52.390;6.136;2023-02-15T06:54:36;102692.28;;;-0.66;100.00
37202;BME280;37799;52.390;6.136;2023-02-15T06:57:01;102689.16;;;-0.60;100.00
37202;BME280;37799;52.390;6.136;2023-02-15T06:59:27;102685.25;;;-0.53;100.00
37202;BME280;37799;52.390;6.136;2023-02-15T07:01:52;102692.31;;;-0.48;100.00
37202;BME280;37799;52.390;6.136;2023-02-15T07:04:17;102684.47;;;-0.17;100.00
37202;BME280;37799;52.390;6.136;2023-02-15T07:06:43;102680.97;;;-0.19;100.00
37202;BME280;37799;52.390;6.136;2023-02-15T07:09:08;102680.38;;;-0.13;100.00
37202;BME280;37799;52.390;6.136;2023-02-15T07:11:34;102678.88;;;-0.10;100.00
37202;BME280;37799;52.390;6.136;2023-02-15T07:14:18;102666.06;;;-0.11;100.00
37202;BME280;37799;52.390;6.136;2023-02-15T07:16:43;102666.56;;;-0.01;100.00
37202;BME280;37799;52.390;6.136;2023-02-15T07:19:08;102668.41;;;0.02;100.00
37202;BME280;37799;52.390;6.136;2023-02-15T07:21:34;102668.41;;;0.21;100.00
37202;BME280;37799;52.390;6.136;2023-02-15T07:24:00;102667.69;;;0.24;100.00
37202;BME280;37799;52.390;6.136;2023-02-15T07:26:26;102666.88;;;0.25;100.00
37202;BME280;37799;52.390;6.136;2023-02-15T07:28:51;102672.25;;;0.31;100.00
37202;BME280;37799;52.390;6.136;2023-02-15T07:31:17;102673.88;;;0.29;100.00
37202;BME280;37799;52.390;6.136;2023-02-15T07:33:42;102667.09;;;0.49;100.00
37202;BME280;37799;52.390;6.136;2023-02-15T07:36:08;102671.00;;;0.60;100.00
37202;BME280;37799;52.390;6.136;2023-02-15T07:38:38;102666.38;;;0.51;100.00
37202;BME280;37799;52.390;6.136;2023-02-15T07:41:13;102662.44;;;0.58;100.00
37202;BME280;37799;52.390;6.136;2023-02-15T07:43:41;102666.25;;;0.68;100.00
37202;BME280;37799;52.390;6.136;2023-02-15T07:46:09;102669.63;;;0.67;100.00
37202;BME280;37799;52.390;6.136;2023-02-15T07:48:37;102661.00;;;0.65;100.00
37202;BME280;37799;52.390;6.136;2023-02-15T07:51:04;102657.81;;;0.69;100.00
37202;BME280;37799;52.390;6.136;2023-02-15T07:53:30;102652.53;;;0.85;100.00
37202;BME280;37799;52.390;6.136;2023-02-15T07:55:59;102648.13;;;0.81;100.00
37202;BME280;37799;52.390;6.136;2023-02-15T07:58:25;102654.06;;;1.01;100.00
37202;BME280;37799;52.390;6.136;2023-02-15T08:01:10;102653.66;;;1.11;100.00
37202;BME280;37799;52.390;6.136;2023-02-15T08:03:35;102640.16;;;1.13;100.00
37202;BME280;37799;52.390;6.136;2023-02-15T08:06:01;102639.63;;;1.43;100.00
37202;BME280;37799;52.390;6.136;2023-02-15T08:08:27;102644.13;;;1.48;100.00
37202;BME280;37799;52.390;6.136;2023-02-15T08:11:02;102639.47;;;1.59;100.00
37202;BME280;37799;52.390;6.136;2023-02-15T08:13:48;102640.69;;;1.69;100.00
37202;BME280;37799;52.390;6.136;2023-02-15T08:16:21;102635.66;;;1.93;100.00
37202;BME280;37799;52.390;6.136;2023-02-15T08:18:47;102629.81;;;2.19;100.00
37202;BME280;37799;52.390;6.136;2023-02-15T08:21:13;102638.03;;;2.57;100.00
37202;BME280;37799;52.390;6.136;2023-02-15T08:23:38;102639.91;;;2.86;100.00
37202;BME280;37799;52.390;6.136;2023-02-15T08:26:04;102625.56;;;3.15;100.00
37202;BME280;37799;52.390;6.136;2023-02-15T08:28:29;102631.22;;;3.32;100.00
37202;BME280;37799;52.390;6.136;2023-02-15T08:30:55;102636.81;;;3.47;100.00
37202;BME280;37799;52.390;6.136;2023-02-15T08:33:20;102634.56;;;3.57;100.00
37202;BME280;37799;52.390;6.136;2023-02-15T08:35:45;102640.91;;;3.68;100.00
37202;BME280;37799;52.390;6.136;2023-02-15T08:38:11;102636.13;;;3.78;100.00
37202;BME280;37799;52.390;6.136;2023-02-15T08:40:36;102648.22;;;3.84;100.00
37202;BME280;37799;52.390;6.136;2023-02-15T08:43:03;102640.09;;;3.97;100.00
37202;BME280;37799;52.390;6.136;2023-02-15T08:45:28;102641.19;;;4.05;100.00
37202;BME280;37799;52.390;6.136;2023-02-15T08:47:53;102631.81;;;4.36;100.00
37202;BME280;37799;52.390;6.136;2023-02-15T08:50:18;102631.31;;;4.49;100.00
37202;BME280;37799;52.390;6.136;2023-02-15T08:52:44;102624.63;;;4.54;100.00
37202;BME280;37799;52.390;6.136;2023-02-15T08:55:09;102622.72;;;4.47;100.00
37202;BME280;37799;52.390;6.136;2023-02-15T08:57:35;102625.94;;;4.70;100.00
37202;BME280;37799;52.390;6.136;2023-02-15T09:00:00;102620.94;;;4.76;100.00
37202;BME280;37799;52.390;6.136;2023-02-15T09:02:27;102625.13;;;4.72;100.00
37202;BME280;37799;52.390;6.136;2023-02-15T09:04:52;102630.88;;;4.95;100.00
37202;BME280;37799;52.390;6.136;2023-02-15T09:07:17;102614.81;;;5.04;100.00
37202;BME280;37799;52.390;6.136;2023-02-15T09:09:43;102613.34;;;5.14;100.00
37202;BME280;37799;52.390;6.136;2023-02-15T09:12:10;102614.44;;;5.23;100.00
37202;BME280;37799;52.390;6.136;2023-02-15T09:14:35;102614.03;;;5.43;100.00
37202;BME280;37799;52.390;6.136;2023-02-15T09:17:01;102613.47;;;5.54;100.00
37202;BME280;37799;52.390;6.136;2023-02-15T09:19:26;102606.78;;;5.61;100.00
37202;BME280;37799;52.390;6.136;2023-02-15T09:21:51;102610.66;;;5.81;100.00
37202;BME280;37799;52.390;6.136;2023-02-15T09:24:17;102615.78;;;5.81;100.00
37202;BME280;37799;52.390;6.136;2023-02-15T09:26:46;102607.53;;;5.95;100.00
37202;BME280;37799;52.390;6.136;2023-02-15T09:29:13;102599.66;;;6.26;100.00
37202;BME280;37799;52.390;6.136;2023-02-15T09:31:45;102600.78;;;6.40;100.00
37202;BME280;37799;52.390;6.136;2023-02-15T09:34:13;102608.03;;;6.61;100.00
37202;BME280;37799;52.390;6.136;2023-02-15T09:36:39;102603.75;;;6.62;100.00
37202;BME280;37799;52.390;6.136;2023-02-15T09:39:16;102604.59;;;6.62;100.00
37202;BME280;37799;52.390;6.136;2023-02-15T09:41:59;102599.56;;;6.67;100.00
37202;BME280;37799;52.390;6.136;2023-02-15T09:50:06;102591.00;;;6.68;100.00
37202;BME280;37799;52.390;6.136;2023-02-15T09:52:45;102596.44;;;6.85;100.00
37202;BME280;37799;52.390;6.136;2023-02-15T10:04:15;102594.75;;;7.38;100.00
37202;BME280;37799;52.390;6.136;2023-02-15T10:06:50;102598.41;;;7.54;100.00
37202;BME280;37799;52.390;6.136;2023-02-15T10:20:25;102601.88;;;8.19;100.00
37202;BME280;37799;52.390;6.136;2023-02-15T10:23:23;102603.66;;;8.23;100.00
37202;BME280;37799;52.390;6.136;2023-02-15T10:28:40;102594.44;;;8.42;100.00
37202;BME280;37799;52.390;6.136;2023-02-15T10:31:23;102598.03;;;8.58;100.00
37202;BME280;37799;52.390;6.136;2023-02-15T10:34:23;102606.88;;;8.78;100.00
37202;BME280;37799;52.390;6.136;2023-02-15T10:39:48;102601.53;;;8.62;100.00
37202;BME280;37799;52.390;6.136;2023-02-15T10:42:39;102613.44;;;8.47;100.00
37202;BME280;37799;52.390;6.136;2023-02-15T10:45:18;102600.00;;;8.83;100.00
37202;BME280;37799;52.390;6.136;2023-02-15T10:50:30;102593.84;;;8.71;100.00
37202;BME280;37799;52.390;6.136;2023-02-15T10:53:26;102594.19;;;9.07;100.00
37202;BME280;37799;52.390;6.136;2023-02-15T11:01:30;102602.47;;;9.82;100.00
37202;BME280;37799;52.390;6.136;2023-02-15T11:07:04;102602.66;;;10.19;100.00
37202;BME280;37799;52.390;6.136;2023-02-15T11:09:43;102605.19;;;10.07;100.00
37202;BME280;37799;52.390;6.136;2023-02-15T11:12:13;102592.97;;;9.78;100.00
37202;BME280;37799;52.390;6.136;2023-02-15T11:14:59;102593.06;;;9.99;100.00
37202;BME280;37799;52.390;6.136;2023-02-15T11:17:35;102577.63;;;10.16;100.00
37202;BME280;37799;52.390;6.136;2023-02-15T11:20:29;102571.66;;;10.32;100.00
37202;BME280;37799;52.390;6.136;2023-02-15T11:22:57;102564.78;;;10.51;100.00
37202;BME280;37799;52.390;6.136;2023-02-15T11:25:29;102575.19;;;10.68;100.00
37202;BME280;37799;52.390;6.136;2023-02-15T11:27:55;102564.81;;;11.03;100.00
37202;BME280;37799;52.390;6.136;2023-02-15T11:30:22;102576.91;;;11.19;100.00
37202;BME280;37799;52.390;6.136;2023-02-15T11:32:52;102579.53;;;11.10;100.00
37202;BME280;37799;52.390;6.136;2023-02-15T11:35:24;102579.53;;;11.00;100.00
37202;BME280;37799;52.390;6.136;2023-02-15T11:38:11;102565.69;;;10.59;100.00
37202;BME280;37799;52.390;6.136;2023-02-15T11:40:45;102556.16;;;10.64;100.00
37202;BME280;37799;52.390;6.136;2023-02-15T11:43:33;102558.78;;;10.86;100.00
37202;BME280;37799;52.390;6.136;2023-02-15T11:46:00;102557.94;;;10.99;100.00
37202;BME280;37799;52.390;6.136;2023-02-15T11:48:29;102559.66;;;11.12;100.00
37202;BME280;37799;52.390;6.136;2023-02-15T11:50:56;102563.94;;;11.18;100.00
37202;BME280;37799;52.390;6.136;2023-02-15T11:53:22;102557.84;;;11.54;100.00
37202;BME280;37799;52.390;6.136;2023-02-15T11:55:53;102559.53;;;11.86;100.00
37202;BME280;37799;52.390;6.136;2023-02-15T11:58:42;102559.53;;;11.72;100.00
37202;BME280;37799;52.390;6.136;2023-02-15T12:01:28;102551.69;;;11.93;100.00
37202;BME280;37799;52.390;6.136;2023-02-15T12:07:04;102542.16;;;11.98;100.00
37202;BME280;37799;52.390;6.136;2023-02-15T12:09:40;102540.38;;;12.06;100.00
37202;BME280;37799;52.390;6.136;2023-02-15T12:14:54;102537.69;;;12.23;100.00
37202;BME280;37799;52.390;6.136;2023-02-15T12:17:28;102524.84;;;12.02;100.00
37202;BME280;37799;52.390;6.136;2023-02-15T12:20:00;102517.13;;;11.80;100.00
37202;BME280;37799;52.390;6.136;2023-02-15T12:22:30;102511.09;;;11.80;100.00
37202;BME280;37799;52.390;6.136;2023-02-15T12:24:59;102521.38;;;12.00;100.00
37202;BME280;37799;52.390;6.136;2023-02-15T12:27:27;102513.50;;;12.17;100.00
37202;BME280;37799;52.390;6.136;2023-02-15T12:29:59;102501.38;;;12.16;100.00
37202;BME280;37799;52.390;6.136;2023-02-15T12:32:31;102510.69;;;12.50;100.00
37202;BME280;37799;52.390;6.136;2023-02-15T12:35:08;102498.84;;;12.05;100.00
37202;BME280;37799;52.390;6.136;2023-02-15T12:37:35;102494.47;;;12.15;100.00
37202;BME280;37799;52.390;6.136;2023-02-15T12:40:18;102494.50;;;12.12;100.00
37202;BME280;37799;52.390;6.136;2023-02-15T12:42:44;102489.25;;;12.19;100.00
37202;BME280;37799;52.390;6.136;2023-02-15T12:45:25;102474.56;;;12.14;100.00
37202;BME280;37799;52.390;6.136;2023-02-15T12:48:17;102477.22;;;12.04;100.00
37202;BME280;37799;52.390;6.136;2023-02-15T12:50:50;102472.88;;;12.05;100.00
37202;BME280;37799;52.390;6.136;2023-02-15T12:53:19;102467.56;;;12.23;100.00
37202;BME280;37799;52.390;6.136;2023-02-15T12:55:51;102462.28;;;12.35;100.00
37202;BME280;37799;52.390;6.136;2023-02-15T12:58:17;102470.88;;;12.45;100.00
37202;BME280;37799;52.390;6.136;2023-02-15T13:00:44;102463.97;;;12.43;100.00
37202;BME280;37799;52.390;6.136;2023-02-15T13:03:18;102466.56;;;12.43;100.00
37202;BME280;37799;52.390;6.136;2023-02-15T13:05:46;102467.47;;;12.35;100.00
37202;BME280;37799;52.390;6.136;2023-02-15T13:08:19;102471.75;;;12.44;100.00
37202;BME280;37799;52.390;6.136;2023-02-15T13:10:56;102469.13;;;12.46;100.00
37202;BME280;37799;52.390;6.136;2023-02-15T13:13:28;102467.56;;;12.23;100.00
37202;BME280;37799;52.390;6.136;2023-02-15T13:15:59;102467.22;;;12.69;100.00
37202;BME280;37799;52.390;6.136;2023-02-15T13:18:31;102459.50;;;12.60;100.00
37202;BME280;37799;52.390;6.136;2023-02-15T13:21:10;102455.00;;;12.79;100.00
37202;BME280;37799;52.390;6.136;2023-02-15T13:23:37;102449.63;;;12.97;100.00
37202;BME280;37799;52.390;6.136;2023-02-15T13:26:05;102449.34;;;13.24;100.00
37202;BME280;37799;52.390;6.136;2023-02-15T13:28:41;102445.78;;;13.33;100.00
37202;BME280;37799;52.390;6.136;2023-02-15T13:31:13;102441.38;;;13.38;100.00
37202;BME280;37799;52.390;6.136;2023-02-15T13:33:43;102430.94;;;13.40;100.00
37202;BME280;37799;52.390;6.136;2023-02-15T13:36:34;102426.03;;;13.15;100.00
37202;BME280;37799;52.390;6.136;2023-02-15T13:44:54;102418.63;;;12.76;100.00
37202;BME280;37799;52.390;6.136;2023-02-15T13:47:48;102410.13;;;12.60;100.00
37202;BME280;37799;52.390;6.136;2023-02-15T13:50:35;102413.00;;;12.28;100.00
37202;BME280;37799;52.390;6.136;2023-02-15T13:55:34;102401.91;;;12.06;100.00
37202;BME280;37799;52.390;6.136;2023-02-15T13:58:29;102401.88;;;12.14;100.00
37202;BME280;37799;52.390;6.136;2023-02-15T14:01:19;102400.00;;;12.29;100.00
37202;BME280;37799;52.390;6.136;2023-02-15T14:07:10;102399.91;;;12.42;100.00
37202;BME280;37799;52.390;6.136;2023-02-15T14:10:02;102394.81;;;12.29;100.00
37202;BME280;37799;52.390;6.136;2023-02-15T14:13:27;102391.50;;;12.07;100.00
37202;BME280;37799;52.390;6.136;2023-02-15T14:16:27;102399.28;;;12.07;100.00
37202;BME280;37799;52.390;6.136;2023-02-15T14:19:25;102398.41;;;12.08;100.00
37202;BME280;37799;52.390;6.136;2023-02-15T14:25:36;102394.19;;;11.95;100.00
37202;BME280;37799;52.390;6.136;2023-02-15T14:30:37;102391.75;;;11.65;100.00